sensor_id;sensor_type;location;lat;lon;timestamp;P1;durP1;ratioP1;P2;durP2;ratioP2
151;SDS011;68;48.792;9.164;2022-08-19T00:00:30;11.10;;;5.10;;
151;SDS011;68;48.792;9.164;2022-08-19T00:02:57;8.77;;;5.20;;
151;SDS011;68;48.792;9.164;2022-08-19T00:05:23;8.33;;;4.80;;
151;SDS011;68;48.792;9.164;2022-08-19T00:07:50;7.13;;;5.00;;
151;SDS011;68;48.792;9.164;2022-08-19T00:10:18;9.93;;;5.73;;
151;SDS011;68;48.792;9.164;2022-08-19T00:12:46;8.17;;;4.40;;
151;SDS011;68;48.792;9.164;2022-08-19T00:15:15;9.80;;;5.67;;
151;SDS011;68;48.792;9.164;2022-08-19T00:17:44;9.20;;;5.40;;
151;SDS011;68;48.792;9.164;2022-08-19T00:20:13;7.37;;;4.80;;
151;SDS011;68;48.792;9.164;2022-08-19T00:22:43;7.50;;;4.77;;
151;SDS011;68;48.792;9.164;2022-08-19T00:25:10;9.00;;;5.53;;
151;SDS011;68;48.792;9.164;2022-08-19T00:27:38;9.43;;;5.03;;
151;SDS011;68;48.792;9.164;2022-08-19T00:30:05;10.20;;;5.33;;
151;SDS011;68;48.792;9.164;2022-08-19T00:32:35;7.93;;;4.50;;
151;SDS011;68;48.792;9.164;2022-08-19T00:35:03;6.77;;;4.47;;
151;SDS011;68;48.792;9.164;2022-08-19T00:37:31;7.70;;;4.87;;
151;SDS011;68;48.792;9.164;2022-08-19T00:39:59;8.27;;;4.60;;
151;SDS011;68;48.792;9.164;2022-08-19T00:42:29;7.80;;;4.50;;
151;SDS011;68;48.792;9.164;2022-08-19T00:44:59;7.07;;;4.47;;
151;SDS011;68;48.792;9.164;2022-08-19T00:47:26;5.90;;;4.23;;
151;SDS011;68;48.792;9.164;2022-08-19T00:49:56;7.93;;;4.90;;
151;SDS011;68;48.792;9.164;2022-08-19T00:52:24;8.00;;;5.17;;
151;SDS011;68;48.792;9.164;2022-08-19T00:54:55;8.87;;;5.37;;
151;SDS011;68;48.792;9.164;2022-08-19T00:57:23;9.13;;;5.37;;
151;SDS011;68;48.792;9.164;2022-08-19T00:59:54;7.30;;;5.13;;
151;SDS011;68;48.792;9.164;2022-08-19T01:02:24;9.03;;;4.80;;
151;SDS011;68;48.792;9.164;2022-08-19T01:04:52;5.73;;;3.80;;
151;SDS011;68;48.792;9.164;2022-08-19T01:07:20;10.20;;;5.43;;
151;SDS011;68;48.792;9.164;2022-08-19T01:09:47;7.23;;;4.90;;
151;SDS011;68;48.792;9.164;2022-08-19T01:12:14;6.20;;;4.30;;
151;SDS011;68;48.792;9.164;2022-08-19T01:14:42;12.30;;;5.93;;
151;SDS011;68;48.792;9.164;2022-08-19T01:17:10;10.97;;;5.57;;
151;SDS011;68;48.792;9.164;2022-08-19T01:19:39;15.53;;;5.27;;
151;SDS011;68;48.792;9.164;2022-08-19T01:22:10;9.53;;;5.40;;
151;SDS011;68;48.792;9.164;2022-08-19T01:24:42;8.97;;;5.00;;
151;SDS011;68;48.792;9.164;2022-08-19T01:27:09;8.30;;;4.50;;
151;SDS011;68;48.792;9.164;2022-08-19T01:29:37;9.40;;;5.10;;
151;SDS011;68;48.792;9.164;2022-08-19T01:32:04;8.20;;;4.63;;
151;SDS011;68;48.792;9.164;2022-08-19T01:34:32;6.77;;;4.63;;
151;SDS011;68;48.792;9.164;2022-08-19T01:36:59;6.93;;;4.93;;
151;SDS011;68;48.792;9.164;2022-08-19T01:39:31;10.57;;;5.77;;
151;SDS011;68;48.792;9.164;2022-08-19T01:41:59;8.57;;;4.87;;
151;SDS011;68;48.792;9.164;2022-08-19T01:44:28;8.70;;;5.40;;
151;SDS011;68;48.792;9.164;2022-08-19T01:46:56;10.80;;;5.93;;
151;SDS011;68;48.792;9.164;2022-08-19T01:49:23;8.77;;;5.37;;
151;SDS011;68;48.792;9.164;2022-08-19T01:51:53;13.47;;;5.70;;
151;SDS011;68;48.792;9.164;2022-08-19T01:54:20;10.30;;;5.53;;
151;SDS011;68;48.792;9.164;2022-08-19T01:56:50;8.33;;;5.00;;
151;SDS011;68;48.792;9.164;2022-08-19T01:59:20;10.33;;;6.07;;
151;SDS011;68;48.792;9.164;2022-08-19T02:01:49;10.37;;;5.87;;
151;SDS011;68;48.792;9.164;2022-08-19T02:04:16;12.30;;;5.20;;
151;SDS011;68;48.792;9.164;2022-08-19T02:06:48;9.47;;;4.73;;
151;SDS011;68;48.792;9.164;2022-08-19T02:09:15;8.73;;;5.80;;
151;SDS011;68;48.792;9.164;2022-08-19T02:11:45;8.40;;;5.13;;
151;SDS011;68;48.792;9.164;2022-08-19T02:14:12;9.57;;;4.90;;
151;SDS011;68;48.792;9.164;2022-08-19T02:16:40;11.00;;;4.80;;
151;SDS011;68;48.792;9.164;2022-08-19T02:19:07;9.13;;;5.30;;
151;SDS011;68;48.792;9.164;2022-08-19T02:21:35;9.00;;;5.80;;
151;SDS011;68;48.792;9.164;2022-08-19T02:24:02;11.30;;;5.70;;
151;SDS011;68;48.792;9.164;2022-08-19T02:26:29;11.40;;;5.67;;
151;SDS011;68;48.792;9.164;2022-08-19T02:28:57;13.27;;;6.03;;
151;SDS011;68;48.792;9.164;2022-08-19T02:31:25;8.53;;;5.20;;
151;SDS011;68;48.792;9.164;2022-08-19T02:33:54;16.13;;;6.47;;
151;SDS011;68;48.792;9.164;2022-08-19T02:36:21;9.97;;;5.80;;
151;SDS011;68;48.792;9.164;2022-08-19T02:38:48;8.17;;;5.47;;
151;SDS011;68;48.792;9.164;2022-08-19T02:41:16;12.57;;;5.77;;
151;SDS011;68;48.792;9.164;2022-08-19T02:43:45;11.50;;;5.80;;
151;SDS011;68;48.792;9.164;2022-08-19T02:46:16;10.53;;;6.27;;
151;SDS011;68;48.792;9.164;2022-08-19T02:48:47;8.50;;;5.30;;
151;SDS011;68;48.792;9.164;2022-08-19T02:51:22;12.70;;;6.43;;
151;SDS011;68;48.792;9.164;2022-08-19T02:53:51;11.30;;;6.07;;
151;SDS011;68;48.792;9.164;2022-08-19T02:56:18;12.10;;;6.70;;
151;SDS011;68;48.792;9.164;2022-08-19T02:58:45;8.70;;;5.80;;
151;SDS011;68;48.792;9.164;2022-08-19T03:01:19;13.40;;;6.50;;
151;SDS011;68;48.792;9.164;2022-08-19T03:03:47;11.17;;;6.03;;
151;SDS011;68;48.792;9.164;2022-08-19T03:06:14;9.03;;;5.50;;
151;SDS011;68;48.792;9.164;2022-08-19T03:08:44;14.63;;;6.80;;
151;SDS011;68;48.792;9.164;2022-08-19T03:11:12;9.77;;;5.80;;
151;SDS011;68;48.792;9.164;2022-08-19T03:13:40;11.73;;;6.57;;
151;SDS011;68;48.792;9.164;2022-08-19T03:16:08;12.97;;;6.27;;
151;SDS011;68;48.792;9.164;2022-08-19T03:18:41;10.37;;;6.67;;
151;SDS011;68;48.792;9.164;2022-08-19T03:21:14;11.80;;;6.40;;
151;SDS011;68;48.792;9.164;2022-08-19T03:23:43;14.50;;;6.63;;
151;SDS011;68;48.792;9.164;2022-08-19T03:26:10;12.60;;;6.13;;
151;SDS011;68;48.792;9.164;2022-08-19T03:28:37;17.23;;;8.73;;
151;SDS011;68;48.792;9.164;2022-08-19T03:31:05;12.93;;;6.70;;
151;SDS011;68;48.792;9.164;2022-08-19T03:33:34;13.40;;;6.50;;
151;SDS011;68;48.792;9.164;2022-08-19T03:36:02;9.50;;;6.60;;
151;SDS011;68;48.792;9.164;2022-08-19T03:38:32;10.23;;;6.17;;
151;SDS011;68;48.792;9.164;2022-08-19T03:41:03;12.53;;;6.47;;
151;SDS011;68;48.792;9.164;2022-08-19T03:43:33;10.93;;;6.70;;
151;SDS011;68;48.792;9.164;2022-08-19T03:46:02;14.33;;;6.77;;
151;SDS011;68;48.792;9.164;2022-08-19T03:48:31;11.77;;;7.20;;
151;SDS011;68;48.792;9.164;2022-08-19T03:50:58;10.03;;;6.17;;
151;SDS011;68;48.792;9.164;2022-08-19T03:53:26;13.57;;;6.53;;
151;SDS011;68;48.792;9.164;2022-08-19T03:55:53;10.80;;;6.27;;
151;SDS011;68;48.792;9.164;2022-08-19T03:58:22;11.83;;;6.90;;
151;SDS011;68;48.792;9.164;2022-08-19T04:00:49;14.53;;;7.30;;
151;SDS011;68;48.792;9.164;2022-08-19T04:03:16;10.67;;;6.00;;
151;SDS011;68;48.792;9.164;2022-08-19T04:05:44;14.37;;;7.60;;
151;SDS011;68;48.792;9.164;2022-08-19T04:08:12;11.93;;;7.40;;
151;SDS011;68;48.792;9.164;2022-08-19T04:10:40;15.77;;;7.67;;
151;SDS011;68;48.792;9.164;2022-08-19T04:13:07;11.00;;;6.60;;
151;SDS011;68;48.792;9.164;2022-08-19T04:15:38;12.70;;;6.77;;
151;SDS011;68;48.792;9.164;2022-08-19T04:18:06;12.07;;;7.43;;
151;SDS011;68;48.792;9.164;2022-08-19T04:20:38;13.20;;;7.00;;
151;SDS011;68;48.792;9.164;2022-08-19T04:23:05;11.53;;;7.40;;
151;SDS011;68;48.792;9.164;2022-08-19T04:25:35;14.10;;;6.60;;
151;SDS011;68;48.792;9.164;2022-08-19T04:28:05;13.17;;;6.53;;
151;SDS011;68;48.792;9.164;2022-08-19T04:30:39;13.23;;;6.87;;
151;SDS011;68;48.792;9.164;2022-08-19T04:33:10;11.70;;;7.00;;
151;SDS011;68;48.792;9.164;2022-08-19T04:35:39;11.10;;;7.20;;
151;SDS011;68;48.792;9.164;2022-08-19T04:38:07;10.83;;;5.90;;
151;SDS011;68;48.792;9.164;2022-08-19T04:40:39;17.03;;;7.60;;
151;SDS011;68;48.792;9.164;2022-08-19T04:43:24;11.83;;;6.63;;
151;SDS011;68;48.792;9.164;2022-08-19T04:45:52;11.63;;;7.30;;
151;SDS011;68;48.792;9.164;2022-08-19T04:48:22;14.83;;;7.00;;
151;SDS011;68;48.792;9.164;2022-08-19T04:50:51;14.03;;;8.37;;
151;SDS011;68;48.792;9.164;2022-08-19T04:53:22;13.07;;;7.47;;
151;SDS011;68;48.792;9.164;2022-08-19T04:55:50;12.63;;;7.17;;
151;SDS011;68;48.792;9.164;2022-08-19T04:58:17;15.53;;;7.23;;
151;SDS011;68;48.792;9.164;2022-08-19T05:00:44;14.63;;;7.50;;
151;SDS011;68;48.792;9.164;2022-08-19T05:03:12;11.33;;;7.13;;
151;SDS011;68;48.792;9.164;2022-08-19T05:05:42;14.10;;;7.30;;
151;SDS011;68;48.792;9.164;2022-08-19T05:08:10;14.30;;;7.30;;
151;SDS011;68;48.792;9.164;2022-08-19T05:10:37;12.00;;;6.80;;
151;SDS011;68;48.792;9.164;2022-08-19T05:13:05;11.33;;;6.03;;
151;SDS011;68;48.792;9.164;2022-08-19T05:15:35;12.87;;;7.73;;
151;SDS011;68;48.792;9.164;2022-08-19T05:18:02;13.47;;;6.73;;
151;SDS011;68;48.792;9.164;2022-08-19T05:20:48;11.33;;;6.70;;
151;SDS011;68;48.792;9.164;2022-08-19T05:23:32;12.90;;;7.50;;
151;SDS011;68;48.792;9.164;2022-08-19T05:25:59;11.67;;;7.40;;
151;SDS011;68;48.792;9.164;2022-08-19T05:28:26;15.60;;;7.80;;
151;SDS011;68;48.792;9.164;2022-08-19T05:30:53;13.73;;;7.27;;
151;SDS011;68;48.792;9.164;2022-08-19T05:33:20;12.97;;;7.20;;
151;SDS011;68;48.792;9.164;2022-08-19T05:35:50;14.90;;;8.30;;
151;SDS011;68;48.792;9.164;2022-08-19T05:38:17;12.80;;;7.30;;
151;SDS011;68;48.792;9.164;2022-08-19T05:40:45;11.13;;;6.57;;
151;SDS011;68;48.792;9.164;2022-08-19T05:43:13;12.30;;;6.60;;
151;SDS011;68;48.792;9.164;2022-08-19T05:45:41;14.97;;;7.50;;
151;SDS011;68;48.792;9.164;2022-08-19T05:48:09;13.20;;;6.40;;
151;SDS011;68;48.792;9.164;2022-08-19T05:50:37;12.80;;;6.60;;
151;SDS011;68;48.792;9.164;2022-08-19T05:53:08;15.37;;;7.70;;
151;SDS011;68;48.792;9.164;2022-08-19T05:55:35;16.10;;;7.40;;
151;SDS011;68;48.792;9.164;2022-08-19T05:58:03;11.23;;;6.80;;
151;SDS011;68;48.792;9.164;2022-08-19T06:00:32;17.93;;;7.63;;
151;SDS011;68;48.792;9.164;2022-08-19T06:02:59;11.83;;;7.03;;
151;SDS011;68;48.792;9.164;2022-08-19T06:05:28;12.57;;;7.30;;
151;SDS011;68;48.792;9.164;2022-08-19T06:07:55;12.50;;;6.57;;
151;SDS011;68;48.792;9.164;2022-08-19T06:10:23;12.87;;;6.60;;
151;SDS011;68;48.792;9.164;2022-08-19T06:12:51;11.90;;;6.93;;
151;SDS011;68;48.792;9.164;2022-08-19T06:15:18;10.97;;;6.83;;
151;SDS011;68;48.792;9.164;2022-08-19T06:17:47;15.30;;;7.10;;
151;SDS011;68;48.792;9.164;2022-08-19T06:20:14;13.20;;;7.20;;
151;SDS011;68;48.792;9.164;2022-08-19T06:22:43;12.23;;;6.60;;
151;SDS011;68;48.792;9.164;2022-08-19T06:25:12;11.70;;;6.60;;
151;SDS011;68;48.792;9.164;2022-08-19T06:27:41;11.40;;;6.80;;
151;SDS011;68;48.792;9.164;2022-08-19T06:30:09;14.07;;;7.30;;
151;SDS011;68;48.792;9.164;2022-08-19T06:32:37;10.13;;;6.30;;
151;SDS011;68;48.792;9.164;2022-08-19T06:35:04;14.00;;;7.60;;
151;SDS011;68;48.792;9.164;2022-08-19T06:37:32;9.73;;;6.57;;
151;SDS011;68;48.792;9.164;2022-08-19T06:39:59;13.87;;;7.87;;
151;SDS011;68;48.792;9.164;2022-08-19T06:42:25;12.57;;;6.30;;
151;SDS011;68;48.792;9.164;2022-08-19T06:44:54;10.40;;;6.13;;
151;SDS011;68;48.792;9.164;2022-08-19T06:47:21;12.10;;;7.40;;
151;SDS011;68;48.792;9.164;2022-08-19T06:49:48;12.50;;;7.43;;
151;SDS011;68;48.792;9.164;2022-08-19T06:52:25;13.63;;;6.63;;
151;SDS011;68;48.792;9.164;2022-08-19T06:54:52;14.27;;;7.53;;
151;SDS011;68;48.792;9.164;2022-08-19T06:57:20;12.10;;;7.00;;
151;SDS011;68;48.792;9.164;2022-08-19T06:59:47;12.53;;;7.13;;
151;SDS011;68;48.792;9.164;2022-08-19T07:02:15;13.07;;;6.83;;
151;SDS011;68;48.792;9.164;2022-08-19T07:04:42;12.60;;;6.90;;
151;SDS011;68;48.792;9.164;2022-08-19T07:07:10;13.23;;;7.53;;
151;SDS011;68;48.792;9.164;2022-08-19T07:09:39;14.73;;;8.90;;
151;SDS011;68;48.792;9.164;2022-08-19T07:12:08;15.67;;;7.90;;
151;SDS011;68;48.792;9.164;2022-08-19T07:14:38;12.40;;;7.30;;
151;SDS011;68;48.792;9.164;2022-08-19T07:17:08;12.97;;;7.10;;
151;SDS011;68;48.792;9.164;2022-08-19T07:19:38;13.40;;;7.40;;
151;SDS011;68;48.792;9.164;2022-08-19T07:22:06;10.53;;;6.67;;
151;SDS011;68;48.792;9.164;2022-08-19T07:24:35;12.30;;;7.30;;
151;SDS011;68;48.792;9.164;2022-08-19T07:27:04;12.90;;;7.10;;
151;SDS011;68;48.792;9.164;2022-08-19T07:29:33;12.70;;;6.60;;
151;SDS011;68;48.792;9.164;2022-08-19T07:32:01;12.00;;;7.00;;
151;SDS011;68;48.792;9.164;2022-08-19T07:34:30;14.23;;;7.80;;
151;SDS011;68;48.792;9.164;2022-08-19T07:37:00;13.53;;;7.07;;
151;SDS011;68;48.792;9.164;2022-08-19T07:39:29;13.67;;;7.40;;
151;SDS011;68;48.792;9.164;2022-08-19T07:41:59;11.67;;;6.60;;
151;SDS011;68;48.792;9.164;2022-08-19T07:44:27;14.63;;;7.43;;
151;SDS011;68;48.792;9.164;2022-08-19T07:46:55;12.00;;;6.73;;
151;SDS011;68;48.792;9.164;2022-08-19T07:49:24;14.57;;;7.57;;
151;SDS011;68;48.792;9.164;2022-08-19T07:51:52;11.03;;;6.10;;
151;SDS011;68;48.792;9.164;2022-08-19T07:54:24;10.30;;;6.00;;
151;SDS011;68;48.792;9.164;2022-08-19T07:56:52;12.67;;;7.70;;
151;SDS011;68;48.792;9.164;2022-08-19T07:59:20;11.33;;;7.77;;
151;SDS011;68;48.792;9.164;2022-08-19T08:01:47;13.13;;;6.73;;
151;SDS011;68;48.792;9.164;2022-08-19T08:04:15;11.27;;;6.67;;
151;SDS011;68;48.792;9.164;2022-08-19T08:07:00;9.87;;;6.23;;
151;SDS011;68;48.792;9.164;2022-08-19T08:09:46;13.80;;;7.23;;
151;SDS011;68;48.792;9.164;2022-08-19T08:12:14;11.90;;;6.77;;
151;SDS011;68;48.792;9.164;2022-08-19T08:14:44;16.33;;;6.83;;
151;SDS011;68;48.792;9.164;2022-08-19T08:17:12;12.83;;;6.43;;
151;SDS011;68;48.792;9.164;2022-08-19T08:19:40;11.63;;;6.80;;
151;SDS011;68;48.792;9.164;2022-08-19T08:22:08;13.60;;;6.67;;
151;SDS011;68;48.792;9.164;2022-08-19T08:24:59;13.60;;;6.13;;
151;SDS011;68;48.792;9.164;2022-08-19T08:27:28;10.10;;;5.87;;
151;SDS011;68;48.792;9.164;2022-08-19T08:29:56;13.13;;;7.13;;
151;SDS011;68;48.792;9.164;2022-08-19T08:32:23;10.83;;;6.50;;
151;SDS011;68;48.792;9.164;2022-08-19T08:34:50;10.33;;;6.00;;
151;SDS011;68;48.792;9.164;2022-08-19T08:37:18;12.10;;;6.30;;
151;SDS011;68;48.792;9.164;2022-08-19T08:39:47;10.10;;;6.33;;
151;SDS011;68;48.792;9.164;2022-08-19T08:42:17;14.37;;;7.10;;
151;SDS011;68;48.792;9.164;2022-08-19T08:44:52;8.27;;;5.40;;
151;SDS011;68;48.792;9.164;2022-08-19T08:47:23;14.70;;;7.20;;
151;SDS011;68;48.792;9.164;2022-08-19T08:49:55;12.97;;;6.47;;
151;SDS011;68;48.792;9.164;2022-08-19T08:52:26;12.97;;;6.70;;
151;SDS011;68;48.792;9.164;2022-08-19T08:54:59;13.70;;;6.67;;
151;SDS011;68;48.792;9.164;2022-08-19T08:57:34;13.27;;;7.00;;
151;SDS011;68;48.792;9.164;2022-08-19T09:00:06;10.50;;;6.50;;
151;SDS011;68;48.792;9.164;2022-08-19T09:02:36;12.43;;;6.80;;
151;SDS011;68;48.792;9.164;2022-08-19T09:05:03;9.97;;;6.20;;
151;SDS011;68;48.792;9.164;2022-08-19T09:07:34;17.60;;;7.60;;
151;SDS011;68;48.792;9.164;2022-08-19T09:10:09;10.30;;;5.93;;
151;SDS011;68;48.792;9.164;2022-08-19T09:12:45;12.73;;;6.13;;
151;SDS011;68;48.792;9.164;2022-08-19T09:15:22;10.60;;;6.70;;
151;SDS011;68;48.792;9.164;2022-08-19T09:17:58;10.50;;;7.00;;
151;SDS011;68;48.792;9.164;2022-08-19T09:20:28;12.30;;;6.27;;
151;SDS011;68;48.792;9.164;2022-08-19T09:22:56;12.50;;;6.80;;
151;SDS011;68;48.792;9.164;2022-08-19T09:25:24;11.77;;;6.30;;
151;SDS011;68;48.792;9.164;2022-08-19T09:27:53;14.43;;;6.60;;
151;SDS011;68;48.792;9.164;2022-08-19T09:30:22;11.67;;;7.37;;
151;SDS011;68;48.792;9.164;2022-08-19T09:32:51;11.23;;;6.23;;
151;SDS011;68;48.792;9.164;2022-08-19T09:35:19;10.50;;;6.03;;
151;SDS011;68;48.792;9.164;2022-08-19T09:37:48;10.90;;;5.97;;
151;SDS011;68;48.792;9.164;2022-08-19T09:40:15;11.60;;;6.70;;
151;SDS011;68;48.792;9.164;2022-08-19T09:42:43;12.40;;;7.50;;
151;SDS011;68;48.792;9.164;2022-08-19T09:45:13;9.77;;;5.67;;
151;SDS011;68;48.792;9.164;2022-08-19T09:47:41;10.00;;;6.20;;
151;SDS011;68;48.792;9.164;2022-08-19T09:50:09;9.80;;;5.90;;
151;SDS011;68;48.792;9.164;2022-08-19T09:52:37;8.93;;;5.47;;
151;SDS011;68;48.792;9.164;2022-08-19T09:55:04;10.33;;;5.83;;
151;SDS011;68;48.792;9.164;2022-08-19T09:57:32;11.67;;;6.10;;
151;SDS011;68;48.792;9.164;2022-08-19T09:59:59;8.87;;;5.70;;
151;SDS011;68;48.792;9.164;2022-08-19T10:02:27;8.17;;;5.60;;
151;SDS011;68;48.792;9.164;2022-08-19T10:04:54;6.73;;;4.77;;
151;SDS011;68;48.792;9.164;2022-08-19T10:07:39;8.93;;;5.30;;
151;SDS011;68;48.792;9.164;2022-08-19T10:10:06;10.17;;;5.60;;
151;SDS011;68;48.792;9.164;2022-08-19T10:12:34;9.23;;;5.50;;
151;SDS011;68;48.792;9.164;2022-08-19T10:15:02;8.57;;;5.50;;
151;SDS011;68;48.792;9.164;2022-08-19T10:17:32;11.30;;;6.37;;
151;SDS011;68;48.792;9.164;2022-08-19T10:20:00;8.47;;;5.40;;
151;SDS011;68;48.792;9.164;2022-08-19T10:22:29;9.40;;;5.77;;
151;SDS011;68;48.792;9.164;2022-08-19T10:24:56;10.67;;;6.10;;
151;SDS011;68;48.792;9.164;2022-08-19T10:27:23;9.30;;;5.70;;
151;SDS011;68;48.792;9.164;2022-08-19T10:29:50;8.13;;;5.30;;
151;SDS011;68;48.792;9.164;2022-08-19T10:32:17;9.57;;;5.20;;
151;SDS011;68;48.792;9.164;2022-08-19T10:34:45;10.83;;;5.10;;
151;SDS011;68;48.792;9.164;2022-08-19T10:37:14;7.43;;;5.20;;
151;SDS011;68;48.792;9.164;2022-08-19T10:39:42;11.00;;;5.30;;
151;SDS011;68;48.792;9.164;2022-08-19T10:42:12;9.40;;;5.17;;
151;SDS011;68;48.792;9.164;2022-08-19T10:44:41;6.67;;;4.40;;
151;SDS011;68;48.792;9.164;2022-08-19T10:47:08;11.50;;;4.90;;
151;SDS011;68;48.792;9.164;2022-08-19T10:49:35;11.97;;;6.10;;
151;SDS011;68;48.792;9.164;2022-08-19T10:52:24;9.53;;;5.20;;
151;SDS011;68;48.792;9.164;2022-08-19T10:54:58;8.23;;;4.70;;
151;SDS011;68;48.792;9.164;2022-08-19T10:57:43;19.00;;;4.57;;
151;SDS011;68;48.792;9.164;2022-08-19T11:00:11;8.00;;;4.30;;
151;SDS011;68;48.792;9.164;2022-08-19T11:02:39;6.03;;;4.07;;
151;SDS011;68;48.792;9.164;2022-08-19T11:05:06;7.43;;;4.77;;
151;SDS011;68;48.792;9.164;2022-08-19T11:07:37;7.90;;;4.43;;
151;SDS011;68;48.792;9.164;2022-08-19T11:10:05;6.10;;;4.17;;
151;SDS011;68;48.792;9.164;2022-08-19T11:12:33;5.80;;;3.87;;
151;SDS011;68;48.792;9.164;2022-08-19T11:14:59;6.43;;;4.20;;
151;SDS011;68;48.792;9.164;2022-08-19T11:17:27;7.47;;;4.67;;
151;SDS011;68;48.792;9.164;2022-08-19T11:19:55;5.90;;;4.23;;
151;SDS011;68;48.792;9.164;2022-08-19T11:22:22;6.43;;;4.10;;
151;SDS011;68;48.792;9.164;2022-08-19T11:24:50;7.00;;;3.80;;
151;SDS011;68;48.792;9.164;2022-08-19T11:27:18;5.27;;;3.83;;
151;SDS011;68;48.792;9.164;2022-08-19T11:29:45;7.33;;;4.43;;
151;SDS011;68;48.792;9.164;2022-08-19T11:32:12;7.13;;;4.80;;
151;SDS011;68;48.792;9.164;2022-08-19T11:34:40;6.73;;;4.47;;
151;SDS011;68;48.792;9.164;2022-08-19T11:37:07;5.73;;;3.73;;
151;SDS011;68;48.792;9.164;2022-08-19T11:39:36;6.13;;;4.20;;
151;SDS011;68;48.792;9.164;2022-08-19T11:42:05;7.17;;;4.70;;
151;SDS011;68;48.792;9.164;2022-08-19T11:44:46;6.60;;;4.40;;
151;SDS011;68;48.792;9.164;2022-08-19T11:47:14;5.63;;;4.20;;
151;SDS011;68;48.792;9.164;2022-08-19T11:49:41;7.33;;;4.10;;
151;SDS011;68;48.792;9.164;2022-08-19T11:52:08;6.30;;;4.17;;
151;SDS011;68;48.792;9.164;2022-08-19T11:54:35;5.87;;;4.00;;
151;SDS011;68;48.792;9.164;2022-08-19T11:57:02;6.10;;;4.43;;
151;SDS011;68;48.792;9.164;2022-08-19T11:59:31;5.90;;;4.27;;
151;SDS011;68;48.792;9.164;2022-08-19T12:01:58;6.70;;;4.40;;
151;SDS011;68;48.792;9.164;2022-08-19T12:04:25;5.97;;;4.10;;
151;SDS011;68;48.792;9.164;2022-08-19T12:06:52;6.30;;;4.23;;
151;SDS011;68;48.792;9.164;2022-08-19T12:09:19;6.90;;;3.90;;
151;SDS011;68;48.792;9.164;2022-08-19T12:11:47;6.17;;;3.93;;
151;SDS011;68;48.792;9.164;2022-08-19T12:14:17;5.30;;;4.00;;
151;SDS011;68;48.792;9.164;2022-08-19T12:16:44;6.97;;;3.97;;
151;SDS011;68;48.792;9.164;2022-08-19T12:19:12;7.10;;;4.43;;
151;SDS011;68;48.792;9.164;2022-08-19T12:21:39;6.27;;;3.93;;
151;SDS011;68;48.792;9.164;2022-08-19T12:24:06;6.00;;;4.10;;
151;SDS011;68;48.792;9.164;2022-08-19T12:26:33;7.70;;;4.60;;
151;SDS011;68;48.792;9.164;2022-08-19T12:29:01;6.47;;;4.07;;
151;SDS011;68;48.792;9.164;2022-08-19T12:31:30;5.90;;;3.50;;
151;SDS011;68;48.792;9.164;2022-08-19T12:33:58;5.53;;;3.60;;
151;SDS011;68;48.792;9.164;2022-08-19T12:36:27;12.60;;;4.40;;
151;SDS011;68;48.792;9.164;2022-08-19T12:38:54;6.80;;;4.20;;
151;SDS011;68;48.792;9.164;2022-08-19T12:41:23;6.40;;;4.23;;
151;SDS011;68;48.792;9.164;2022-08-19T12:43:50;6.50;;;4.27;;
151;SDS011;68;48.792;9.164;2022-08-19T12:46:18;12.40;;;5.00;;
151;SDS011;68;48.792;9.164;2022-08-19T12:48:47;8.83;;;4.90;;
151;SDS011;68;48.792;9.164;2022-08-19T12:51:15;8.90;;;4.80;;
151;SDS011;68;48.792;9.164;2022-08-19T12:53:44;8.77;;;4.60;;
151;SDS011;68;48.792;9.164;2022-08-19T12:56:12;6.73;;;4.73;;
151;SDS011;68;48.792;9.164;2022-08-19T12:58:40;11.37;;;5.33;;
151;SDS011;68;48.792;9.164;2022-08-19T13:01:08;9.40;;;4.80;;
151;SDS011;68;48.792;9.164;2022-08-19T13:03:36;7.13;;;4.23;;
151;SDS011;68;48.792;9.164;2022-08-19T13:06:05;10.33;;;5.33;;
151;SDS011;68;48.792;9.164;2022-08-19T13:08:33;8.50;;;5.00;;
151;SDS011;68;48.792;9.164;2022-08-19T13:11:06;8.30;;;5.10;;
151;SDS011;68;48.792;9.164;2022-08-19T13:13:35;6.57;;;4.23;;
151;SDS011;68;48.792;9.164;2022-08-19T13:16:03;8.83;;;5.17;;
151;SDS011;68;48.792;9.164;2022-08-19T13:18:30;10.13;;;5.43;;
151;SDS011;68;48.792;9.164;2022-08-19T13:20:57;9.03;;;5.07;;
151;SDS011;68;48.792;9.164;2022-08-19T13:23:29;7.67;;;4.97;;
151;SDS011;68;48.792;9.164;2022-08-19T13:25:57;7.03;;;4.60;;
151;SDS011;68;48.792;9.164;2022-08-19T13:28:24;9.30;;;5.40;;
151;SDS011;68;48.792;9.164;2022-08-19T13:30:52;8.20;;;5.30;;
151;SDS011;68;48.792;9.164;2022-08-19T13:33:36;7.63;;;5.50;;
151;SDS011;68;48.792;9.164;2022-08-19T13:36:03;9.57;;;6.17;;
151;SDS011;68;48.792;9.164;2022-08-19T13:38:34;10.87;;;5.40;;
151;SDS011;68;48.792;9.164;2022-08-19T13:41:03;8.30;;;4.80;;
151;SDS011;68;48.792;9.164;2022-08-19T13:43:31;9.53;;;5.73;;
151;SDS011;68;48.792;9.164;2022-08-19T13:45:58;10.53;;;5.70;;
151;SDS011;68;48.792;9.164;2022-08-19T13:48:25;10.83;;;6.10;;
151;SDS011;68;48.792;9.164;2022-08-19T13:50:52;10.20;;;6.10;;
151;SDS011;68;48.792;9.164;2022-08-19T13:53:19;10.20;;;6.70;;
151;SDS011;68;48.792;9.164;2022-08-19T13:55:48;9.17;;;5.17;;
151;SDS011;68;48.792;9.164;2022-08-19T13:58:16;11.87;;;6.43;;
151;SDS011;68;48.792;9.164;2022-08-19T14:00:44;13.10;;;6.27;;
151;SDS011;68;48.792;9.164;2022-08-19T14:03:13;9.53;;;6.10;;
151;SDS011;68;48.792;9.164;2022-08-19T14:05:40;11.20;;;6.47;;
151;SDS011;68;48.792;9.164;2022-08-19T14:08:07;12.00;;;7.00;;
151;SDS011;68;48.792;9.164;2022-08-19T14:10:34;11.13;;;6.17;;
151;SDS011;68;48.792;9.164;2022-08-19T14:13:03;11.63;;;6.80;;
151;SDS011;68;48.792;9.164;2022-08-19T14:15:30;11.13;;;7.20;;
151;SDS011;68;48.792;9.164;2022-08-19T14:17:58;12.10;;;7.00;;
151;SDS011;68;48.792;9.164;2022-08-19T14:20:25;10.80;;;6.23;;
151;SDS011;68;48.792;9.164;2022-08-19T14:22:53;11.03;;;6.20;;
151;SDS011;68;48.792;9.164;2022-08-19T14:25:21;12.87;;;6.40;;
151;SDS011;68;48.792;9.164;2022-08-19T14:27:51;10.90;;;6.37;;
151;SDS011;68;48.792;9.164;2022-08-19T14:30:20;14.03;;;8.20;;
151;SDS011;68;48.792;9.164;2022-08-19T14:32:50;10.03;;;6.60;;
151;SDS011;68;48.792;9.164;2022-08-19T14:35:17;11.10;;;7.07;;
151;SDS011;68;48.792;9.164;2022-08-19T14:37:44;13.37;;;5.70;;
151;SDS011;68;48.792;9.164;2022-08-19T14:40:12;11.80;;;6.57;;
151;SDS011;68;48.792;9.164;2022-08-19T14:42:41;10.20;;;6.47;;
151;SDS011;68;48.792;9.164;2022-08-19T14:45:08;9.17;;;6.20;;
151;SDS011;68;48.792;9.164;2022-08-19T14:47:38;10.13;;;6.60;;
151;SDS011;68;48.792;9.164;2022-08-19T14:50:05;10.37;;;6.00;;
151;SDS011;68;48.792;9.164;2022-08-19T14:52:33;9.90;;;5.80;;
151;SDS011;68;48.792;9.164;2022-08-19T14:55:00;11.07;;;5.90;;
151;SDS011;68;48.792;9.164;2022-08-19T14:57:27;13.17;;;5.90;;
151;SDS011;68;48.792;9.164;2022-08-19T14:59:53;11.67;;;6.20;;
151;SDS011;68;48.792;9.164;2022-08-19T15:02:22;9.97;;;5.73;;
151;SDS011;68;48.792;9.164;2022-08-19T15:04:50;11.67;;;6.10;;
151;SDS011;68;48.792;9.164;2022-08-19T15:07:17;11.53;;;6.47;;
151;SDS011;68;48.792;9.164;2022-08-19T15:09:44;9.13;;;5.50;;
151;SDS011;68;48.792;9.164;2022-08-19T15:12:10;10.53;;;6.40;;
151;SDS011;68;48.792;9.164;2022-08-19T15:14:37;9.27;;;5.60;;
151;SDS011;68;48.792;9.164;2022-08-19T15:17:07;10.20;;;6.33;;
151;SDS011;68;48.792;9.164;2022-08-19T15:19:33;12.40;;;6.40;;
151;SDS011;68;48.792;9.164;2022-08-19T15:22:02;8.30;;;5.23;;
151;SDS011;68;48.792;9.164;2022-08-19T15:24:29;9.23;;;6.10;;
151;SDS011;68;48.792;9.164;2022-08-19T15:27:00;8.33;;;4.90;;
151;SDS011;68;48.792;9.164;2022-08-19T15:29:27;9.70;;;4.93;;
151;SDS011;68;48.792;9.164;2022-08-19T15:31:54;9.30;;;5.17;;
151;SDS011;68;48.792;9.164;2022-08-19T15:34:21;11.13;;;5.67;;
151;SDS011;68;48.792;9.164;2022-08-19T15:36:48;8.10;;;5.10;;
151;SDS011;68;48.792;9.164;2022-08-19T15:39:16;10.90;;;5.50;;
151;SDS011;68;48.792;9.164;2022-08-19T15:41:43;9.70;;;5.70;;
151;SDS011;68;48.792;9.164;2022-08-19T15:44:13;8.07;;;4.90;;
151;SDS011;68;48.792;9.164;2022-08-19T15:46:44;10.50;;;6.10;;
151;SDS011;68;48.792;9.164;2022-08-19T15:49:12;10.23;;;5.80;;
151;SDS011;68;48.792;9.164;2022-08-19T15:51:42;8.00;;;5.50;;
151;SDS011;68;48.792;9.164;2022-08-19T15:54:13;8.00;;;5.30;;
151;SDS011;68;48.792;9.164;2022-08-19T15:56:42;8.10;;;5.10;;
151;SDS011;68;48.792;9.164;2022-08-19T15:59:26;6.03;;;4.53;;
151;SDS011;68;48.792;9.164;2022-08-19T16:02:11;7.87;;;5.40;;